sensor_id;sensor_type;location;lat;lon;timestamp;P1;durP1;ratioP1;P2;durP2;ratioP2
13244;SDS011;6689;53.400;12.486;2023-07-20T00:01:01;5.78;;;3.20;;
13244;SDS011;6689;53.400;12.486;2023-07-20T00:03:29;7.40;;;3.53;;
13244;SDS011;6689;53.400;12.486;2023-07-20T00:05:56;4.05;;;3.10;;
13244;SDS011;6689;53.400;12.486;2023-07-20T00:08:24;7.10;;;3.25;;
13244;SDS011;6689;53.400;12.486;2023-07-20T00:10:54;4.40;;;3.25;;
13244;SDS011;6689;53.400;12.486;2023-07-20T00:13:21;5.38;;;3.20;;
13244;SDS011;6689;53.400;12.486;2023-07-20T00:15:49;3.65;;;3.35;;
13244;SDS011;6689;53.400;12.486;2023-07-20T00:18:18;4.78;;;3.22;;
13244;SDS011;6689;53.400;12.486;2023-07-20T00:20:46;3.67;;;3.22;;
13244;SDS011;6689;53.400;12.486;2023-07-20T00:23:13;3.70;;;3.40;;
13244;SDS011;6689;53.400;12.486;2023-07-20T00:25:41;5.63;;;3.55;;
13244;SDS011;6689;53.400;12.486;2023-07-20T00:28:09;3.58;;;2.80;;
13244;SDS011;6689;53.400;12.486;2023-07-20T00:30:37;3.95;;;3.50;;
13244;SDS011;6689;53.400;12.486;2023-07-20T00:33:06;6.57;;;3.35;;
13244;SDS011;6689;53.400;12.486;2023-07-20T00:35:36;3.85;;;3.42;;
13244;SDS011;6689;53.400;12.486;2023-07-20T00:38:04;6.88;;;3.85;;
13244;SDS011;6689;53.400;12.486;2023-07-20T00:40:35;4.72;;;3.15;;
13244;SDS011;6689;53.400;12.486;2023-07-20T00:43:03;5.50;;;3.40;;
13244;SDS011;6689;53.400;12.486;2023-07-20T00:45:32;8.10;;;3.70;;
13244;SDS011;6689;53.400;12.486;2023-07-20T00:48:00;3.72;;;3.22;;
13244;SDS011;6689;53.400;12.486;2023-07-20T00:50:28;4.82;;;3.60;;
13244;SDS011;6689;53.400;12.486;2023-07-20T00:52:56;3.45;;;3.15;;
13244;SDS011;6689;53.400;12.486;2023-07-20T00:55:24;3.05;;;2.75;;
13244;SDS011;6689;53.400;12.486;2023-07-20T00:57:51;3.60;;;3.10;;
13244;SDS011;6689;53.400;12.486;2023-07-20T01:00:19;6.22;;;3.40;;
13244;SDS011;6689;53.400;12.486;2023-07-20T01:02:48;5.97;;;3.17;;
13244;SDS011;6689;53.400;12.486;2023-07-20T01:05:17;3.90;;;2.67;;
13244;SDS011;6689;53.400;12.486;2023-07-20T01:07:46;4.72;;;3.08;;
13244;SDS011;6689;53.400;12.486;2023-07-20T01:10:23;5.53;;;3.00;;
13244;SDS011;6689;53.400;12.486;2023-07-20T01:12:55;7.32;;;3.28;;
13244;SDS011;6689;53.400;12.486;2023-07-20T01:15:24;4.75;;;3.15;;
13244;SDS011;6689;53.400;12.486;2023-07-20T01:17:55;4.47;;;3.25;;
13244;SDS011;6689;53.400;12.486;2023-07-20T01:20:25;3.38;;;3.00;;
13244;SDS011;6689;53.400;12.486;2023-07-20T01:23:00;3.90;;;3.45;;
13244;SDS011;6689;53.400;12.486;2023-07-20T01:25:58;3.78;;;3.45;;
13244;SDS011;6689;53.400;12.486;2023-07-20T01:28:55;4.05;;;3.38;;
13244;SDS011;6689;53.400;12.486;2023-07-20T01:31:34;5.57;;;3.90;;
13244;SDS011;6689;53.400;12.486;2023-07-20T01:34:04;4.28;;;3.72;;
13244;SDS011;6689;53.400;12.486;2023-07-20T01:36:35;7.38;;;4.53;;
13244;SDS011;6689;53.400;12.486;2023-07-20T01:39:04;4.75;;;4.20;;
13244;SDS011;6689;53.400;12.486;2023-07-20T01:41:34;4.90;;;4.50;;
13244;SDS011;6689;53.400;12.486;2023-07-20T01:44:03;5.03;;;4.30;;
13244;SDS011;6689;53.400;12.486;2023-07-20T01:46:31;5.47;;;4.13;;
13244;SDS011;6689;53.400;12.486;2023-07-20T01:49:00;4.45;;;3.40;;
13244;SDS011;6689;53.400;12.486;2023-07-20T01:51:28;5.30;;;4.18;;
13244;SDS011;6689;53.400;12.486;2023-07-20T01:53:55;5.03;;;3.90;;
13244;SDS011;6689;53.400;12.486;2023-07-20T01:56:22;6.57;;;4.85;;
13244;SDS011;6689;53.400;12.486;2023-07-20T01:58:50;5.38;;;3.78;;
13244;SDS011;6689;53.400;12.486;2023-07-20T02:01:17;5.28;;;3.88;;
13244;SDS011;6689;53.400;12.486;2023-07-20T02:03:45;4.78;;;4.20;;
13244;SDS011;6689;53.400;12.486;2023-07-20T02:06:13;5.03;;;4.22;;
13244;SDS011;6689;53.400;12.486;2023-07-20T02:08:41;6.32;;;4.32;;
13244;SDS011;6689;53.400;12.486;2023-07-20T02:11:09;9.05;;;4.60;;
13244;SDS011;6689;53.400;12.486;2023-07-20T02:13:36;4.45;;;4.05;;
13244;SDS011;6689;53.400;12.486;2023-07-20T02:16:04;5.47;;;4.03;;
13244;SDS011;6689;53.400;12.486;2023-07-20T02:18:31;6.95;;;4.88;;
13244;SDS011;6689;53.400;12.486;2023-07-20T02:21:00;5.18;;;4.40;;
13244;SDS011;6689;53.400;12.486;2023-07-20T02:23:29;9.27;;;5.47;;
13244;SDS011;6689;53.400;12.486;2023-07-20T02:25:57;5.60;;;4.97;;
13244;SDS011;6689;53.400;12.486;2023-07-20T02:28:24;6.50;;;5.03;;
13244;SDS011;6689;53.400;12.486;2023-07-20T02:30:52;6.85;;;4.13;;
13244;SDS011;6689;53.400;12.486;2023-07-20T02:33:19;5.03;;;4.45;;
13244;SDS011;6689;53.400;12.486;2023-07-20T02:35:47;6.25;;;4.85;;
13244;SDS011;6689;53.400;12.486;2023-07-20T02:38:14;7.65;;;4.82;;
13244;SDS011;6689;53.400;12.486;2023-07-20T02:40:43;6.07;;;4.38;;
13244;SDS011;6689;53.400;12.486;2023-07-20T02:43:11;6.40;;;4.55;;
13244;SDS011;6689;53.400;12.486;2023-07-20T02:45:40;7.30;;;4.15;;
13244;SDS011;6689;53.400;12.486;2023-07-20T02:48:09;5.90;;;4.68;;
13244;SDS011;6689;53.400;12.486;2023-07-20T02:50:36;5.70;;;4.05;;
13244;SDS011;6689;53.400;12.486;2023-07-20T02:53:04;6.78;;;4.50;;
13244;SDS011;6689;53.400;12.486;2023-07-20T02:55:32;6.85;;;4.30;;
13244;SDS011;6689;53.400;12.486;2023-07-20T02:58:01;6.35;;;4.25;;
13244;SDS011;6689;53.400;12.486;2023-07-20T03:00:29;6.00;;;4.53;;
13244;SDS011;6689;53.400;12.486;2023-07-20T03:02:56;5.28;;;4.78;;
13244;SDS011;6689;53.400;12.486;2023-07-20T03:05:23;5.72;;;4.65;;
13244;SDS011;6689;53.400;12.486;2023-07-20T03:07:52;9.05;;;4.25;;
13244;SDS011;6689;53.400;12.486;2023-07-20T03:10:19;6.55;;;4.70;;
13244;SDS011;6689;53.400;12.486;2023-07-20T03:12:47;5.97;;;4.30;;
13244;SDS011;6689;53.400;12.486;2023-07-20T03:15:16;5.00;;;4.00;;
13244;SDS011;6689;53.400;12.486;2023-07-20T03:17:44;8.60;;;4.40;;
13244;SDS011;6689;53.400;12.486;2023-07-20T03:20:11;5.88;;;4.40;;
13244;SDS011;6689;53.400;12.486;2023-07-20T03:22:38;4.32;;;3.92;;
13244;SDS011;6689;53.400;12.486;2023-07-20T03:25:06;5.10;;;4.57;;
13244;SDS011;6689;53.400;12.486;2023-07-20T03:27:33;5.03;;;4.53;;
13244;SDS011;6689;53.400;12.486;2023-07-20T03:30:00;5.18;;;4.63;;
13244;SDS011;6689;53.400;12.486;2023-07-20T03:33:05;5.55;;;4.75;;
13244;SDS011;6689;53.400;12.486;2023-07-20T03:35:32;6.25;;;4.57;;
13244;SDS011;6689;53.400;12.486;2023-07-20T03:37:59;5.45;;;3.97;;
13244;SDS011;6689;53.400;12.486;2023-07-20T03:40:26;5.05;;;4.55;;
13244;SDS011;6689;53.400;12.486;2023-07-20T03:42:54;6.43;;;4.68;;
13244;SDS011;6689;53.400;12.486;2023-07-20T03:45:21;5.35;;;4.53;;
13244;SDS011;6689;53.400;12.486;2023-07-20T03:47:49;4.70;;;4.20;;
13244;SDS011;6689;53.400;12.486;2023-07-20T03:50:17;5.13;;;4.60;;
13244;SDS011;6689;53.400;12.486;2023-07-20T03:52:45;5.65;;;5.03;;
13244;SDS011;6689;53.400;12.486;2023-07-20T03:55:12;8.30;;;4.63;;
13244;SDS011;6689;53.400;12.486;2023-07-20T03:57:40;4.50;;;4.10;;
13244;SDS011;6689;53.400;12.486;2023-07-20T04:00:08;7.35;;;4.63;;
13244;SDS011;6689;53.400;12.486;2023-07-20T04:02:37;5.75;;;4.20;;
13244;SDS011;6689;53.400;12.486;2023-07-20T04:05:05;5.85;;;4.78;;
13244;SDS011;6689;53.400;12.486;2023-07-20T04:07:34;5.15;;;3.95;;
13244;SDS011;6689;53.400;12.486;2023-07-20T04:10:01;4.85;;;4.13;;
13244;SDS011;6689;53.400;12.486;2023-07-20T04:12:28;5.28;;;4.78;;
13244;SDS011;6689;53.400;12.486;2023-07-20T04:14:56;4.70;;;4.05;;
13244;SDS011;6689;53.400;12.486;2023-07-20T04:17:23;5.10;;;4.35;;
13244;SDS011;6689;53.400;12.486;2023-07-20T04:19:52;6.90;;;4.10;;
13244;SDS011;6689;53.400;12.486;2023-07-20T04:22:20;4.50;;;3.90;;
13244;SDS011;6689;53.400;12.486;2023-07-20T04:24:49;3.78;;;3.45;;
13244;SDS011;6689;53.400;12.486;2023-07-20T04:27:16;3.85;;;3.00;;
13244;SDS011;6689;53.400;12.486;2023-07-20T04:29:43;3.70;;;2.90;;
13244;SDS011;6689;53.400;12.486;2023-07-20T04:32:10;2.60;;;2.33;;
13244;SDS011;6689;53.400;12.486;2023-07-20T04:34:39;2.45;;;2.20;;
13244;SDS011;6689;53.400;12.486;2023-07-20T04:37:06;2.63;;;2.40;;
13244;SDS011;6689;53.400;12.486;2023-07-20T04:39:34;4.43;;;2.33;;
13244;SDS011;6689;53.400;12.486;2023-07-20T04:42:03;5.05;;;2.00;;
13244;SDS011;6689;53.400;12.486;2023-07-20T04:44:30;3.13;;;1.90;;
13244;SDS011;6689;53.400;12.486;2023-07-20T04:46:58;1.98;;;1.60;;
13244;SDS011;6689;53.400;12.486;2023-07-20T04:49:25;2.70;;;1.73;;
13244;SDS011;6689;53.400;12.486;2023-07-20T04:51:52;3.30;;;2.38;;
13244;SDS011;6689;53.400;12.486;2023-07-20T04:54:20;4.05;;;2.42;;
13244;SDS011;6689;53.400;12.486;2023-07-20T04:56:47;3.15;;;2.00;;
13244;SDS011;6689;53.400;12.486;2023-07-20T04:59:16;3.05;;;2.00;;
13244;SDS011;6689;53.400;12.486;2023-07-20T05:01:43;3.13;;;1.85;;
13244;SDS011;6689;53.400;12.486;2023-07-20T05:04:11;3.47;;;1.75;;
13244;SDS011;6689;53.400;12.486;2023-07-20T05:06:38;2.50;;;1.70;;
13244;SDS011;6689;53.400;12.486;2023-07-20T05:09:05;3.40;;;1.65;;
13244;SDS011;6689;53.400;12.486;2023-07-20T05:11:33;2.47;;;1.52;;
13244;SDS011;6689;53.400;12.486;2023-07-20T05:14:00;2.58;;;1.70;;
13244;SDS011;6689;53.400;12.486;2023-07-20T05:16:30;2.30;;;1.77;;
13244;SDS011;6689;53.400;12.486;2023-07-20T05:18:57;3.92;;;2.10;;
13244;SDS011;6689;53.400;12.486;2023-07-20T05:21:24;4.70;;;2.35;;
13244;SDS011;6689;53.400;12.486;2023-07-20T05:23:51;2.88;;;2.13;;
13244;SDS011;6689;53.400;12.486;2023-07-20T05:26:19;2.70;;;2.45;;
13244;SDS011;6689;53.400;12.486;2023-07-20T05:28:46;4.85;;;2.40;;
13244;SDS011;6689;53.400;12.486;2023-07-20T05:31:13;3.83;;;2.72;;
13244;SDS011;6689;53.400;12.486;2023-07-20T05:33:42;3.55;;;2.65;;
13244;SDS011;6689;53.400;12.486;2023-07-20T05:36:09;4.85;;;3.25;;
13244;SDS011;6689;53.400;12.486;2023-07-20T05:38:37;3.30;;;2.92;;
13244;SDS011;6689;53.400;12.486;2023-07-20T05:41:04;3.00;;;2.70;;
13244;SDS011;6689;53.400;12.486;2023-07-20T05:43:35;4.35;;;2.90;;
13244;SDS011;6689;53.400;12.486;2023-07-20T05:46:02;4.40;;;2.60;;
13244;SDS011;6689;53.400;12.486;2023-07-20T05:48:30;5.70;;;2.90;;
13244;SDS011;6689;53.400;12.486;2023-07-20T05:50:59;3.42;;;2.78;;
13244;SDS011;6689;53.400;12.486;2023-07-20T05:53:27;3.85;;;2.72;;
13244;SDS011;6689;53.400;12.486;2023-07-20T05:55:54;4.18;;;2.72;;
13244;SDS011;6689;53.400;12.486;2023-07-20T05:58:22;4.88;;;2.45;;
13244;SDS011;6689;53.400;12.486;2023-07-20T06:00:50;3.47;;;2.60;;
13244;SDS011;6689;53.400;12.486;2023-07-20T06:03:17;3.55;;;2.63;;
13244;SDS011;6689;53.400;12.486;2023-07-20T06:05:46;3.90;;;2.20;;
13244;SDS011;6689;53.400;12.486;2023-07-20T06:08:15;3.25;;;1.95;;
13244;SDS011;6689;53.400;12.486;2023-07-20T06:10:43;3.35;;;1.90;;
13244;SDS011;6689;53.400;12.486;2023-07-20T06:13:10;6.10;;;2.22;;
13244;SDS011;6689;53.400;12.486;2023-07-20T06:15:37;2.47;;;1.50;;
13244;SDS011;6689;53.400;12.486;2023-07-20T06:18:07;1.75;;;1.48;;
13244;SDS011;6689;53.400;12.486;2023-07-20T06:20:34;3.53;;;1.63;;
13244;SDS011;6689;53.400;12.486;2023-07-20T06:23:02;4.53;;;1.70;;
13244;SDS011;6689;53.400;12.486;2023-07-20T06:25:30;5.72;;;1.85;;
13244;SDS011;6689;53.400;12.486;2023-07-20T06:27:57;3.00;;;1.63;;
13244;SDS011;6689;53.400;12.486;2023-07-20T06:30:25;4.55;;;1.58;;
13244;SDS011;6689;53.400;12.486;2023-07-20T06:32:52;3.13;;;1.67;;
13244;SDS011;6689;53.400;12.486;2023-07-20T06:35:19;6.20;;;1.70;;
13244;SDS011;6689;53.400;12.486;2023-07-20T06:37:46;2.25;;;1.48;;
13244;SDS011;6689;53.400;12.486;2023-07-20T06:40:13;2.10;;;1.50;;
13244;SDS011;6689;53.400;12.486;2023-07-20T06:42:42;2.78;;;1.80;;
13244;SDS011;6689;53.400;12.486;2023-07-20T06:45:09;2.92;;;1.70;;
13244;SDS011;6689;53.400;12.486;2023-07-20T06:47:37;2.20;;;1.30;;
13244;SDS011;6689;53.400;12.486;2023-07-20T06:50:06;2.67;;;1.70;;
13244;SDS011;6689;53.400;12.486;2023-07-20T06:52:34;2.65;;;1.70;;
13244;SDS011;6689;53.400;12.486;2023-07-20T06:55:01;2.83;;;1.77;;
13244;SDS011;6689;53.400;12.486;2023-07-20T06:57:29;5.05;;;1.65;;
13244;SDS011;6689;53.400;12.486;2023-07-20T06:59:58;1.40;;;1.13;;
13244;SDS011;6689;53.400;12.486;2023-07-20T07:02:25;1.77;;;0.98;;
13244;SDS011;6689;53.400;12.486;2023-07-20T07:04:53;1.33;;;0.98;;
13244;SDS011;6689;53.400;12.486;2023-07-20T07:07:21;2.65;;;1.02;;
13244;SDS011;6689;53.400;12.486;2023-07-20T07:09:48;3.72;;;1.00;;
13244;SDS011;6689;53.400;12.486;2023-07-20T07:12:16;1.15;;;0.80;;
13244;SDS011;6689;53.400;12.486;2023-07-20T07:14:43;0.90;;;0.68;;
13244;SDS011;6689;53.400;12.486;2023-07-20T07:17:12;1.40;;;0.80;;
13244;SDS011;6689;53.400;12.486;2023-07-20T07:19:39;22.63;;;1.48;;
13244;SDS011;6689;53.400;12.486;2023-07-20T07:22:07;1.83;;;1.05;;
13244;SDS011;6689;53.400;12.486;2023-07-20T07:24:34;2.55;;;1.08;;
13244;SDS011;6689;53.400;12.486;2023-07-20T07:27:02;2.20;;;1.23;;
13244;SDS011;6689;53.400;12.486;2023-07-20T07:29:30;0.80;;;0.80;;
13244;SDS011;6689;53.400;12.486;2023-07-20T07:31:58;2.63;;;0.90;;
13244;SDS011;6689;53.400;12.486;2023-07-20T07:34:26;1.50;;;0.90;;
13244;SDS011;6689;53.400;12.486;2023-07-20T07:36:54;3.65;;;1.30;;
13244;SDS011;6689;53.400;12.486;2023-07-20T07:39:21;1.15;;;0.95;;
13244;SDS011;6689;53.400;12.486;2023-07-20T07:41:49;2.63;;;1.00;;
13244;SDS011;6689;53.400;12.486;2023-07-20T07:44:17;3.90;;;0.95;;
13244;SDS011;6689;53.400;12.486;2023-07-20T07:46:46;6.72;;;1.33;;
13244;SDS011;6689;53.400;12.486;2023-07-20T07:49:14;3.90;;;0.95;;
13244;SDS011;6689;53.400;12.486;2023-07-20T07:51:43;4.80;;;0.80;;
13244;SDS011;6689;53.400;12.486;2023-07-20T07:54:10;2.60;;;0.93;;
13244;SDS011;6689;53.400;12.486;2023-07-20T07:56:37;0.88;;;0.80;;
13244;SDS011;6689;53.400;12.486;2023-07-20T07:59:06;1.08;;;0.75;;
13244;SDS011;6689;53.400;12.486;2023-07-20T08:01:36;1.55;;;0.82;;
13244;SDS011;6689;53.400;12.486;2023-07-20T08:04:03;1.58;;;0.82;;
13244;SDS011;6689;53.400;12.486;2023-07-20T08:06:30;2.17;;;0.90;;
13244;SDS011;6689;53.400;12.486;2023-07-20T08:08:59;2.50;;;1.05;;
13244;SDS011;6689;53.400;12.486;2023-07-20T08:11:27;2.17;;;0.90;;
13244;SDS011;6689;53.400;12.486;2023-07-20T08:13:56;1.48;;;0.90;;
13244;SDS011;6689;53.400;12.486;2023-07-20T08:16:23;1.48;;;0.77;;
13244;SDS011;6689;53.400;12.486;2023-07-20T08:18:50;2.25;;;0.95;;
13244;SDS011;6689;53.400;12.486;2023-07-20T08:21:18;2.20;;;0.80;;
13244;SDS011;6689;53.400;12.486;2023-07-20T08:23:45;4.00;;;0.80;;
13244;SDS011;6689;53.400;12.486;2023-07-20T08:26:14;1.35;;;0.93;;
13244;SDS011;6689;53.400;12.486;2023-07-20T08:28:42;2.90;;;0.80;;
13244;SDS011;6689;53.400;12.486;2023-07-20T08:31:13;1.23;;;0.80;;
13244;SDS011;6689;53.400;12.486;2023-07-20T08:33:40;2.70;;;1.10;;
13244;SDS011;6689;53.400;12.486;2023-07-20T08:36:08;2.10;;;0.80;;
13244;SDS011;6689;53.400;12.486;2023-07-20T08:38:35;2.70;;;0.90;;
13244;SDS011;6689;53.400;12.486;2023-07-20T08:41:02;1.13;;;0.82;;
13244;SDS011;6689;53.400;12.486;2023-07-20T08:43:31;2.55;;;0.70;;
13244;SDS011;6689;53.400;12.486;2023-07-20T08:46:01;2.70;;;0.90;;
13244;SDS011;6689;53.400;12.486;2023-07-20T08:48:29;0.60;;;0.60;;
13244;SDS011;6689;53.400;12.486;2023-07-20T08:50:57;2.33;;;0.80;;
13244;SDS011;6689;53.400;12.486;2023-07-20T08:53:26;6.50;;;1.50;;
13244;SDS011;6689;53.400;12.486;2023-07-20T08:55:55;3.05;;;1.17;;
13244;SDS011;6689;53.400;12.486;2023-07-20T08:58:22;1.55;;;0.80;;
13244;SDS011;6689;53.400;12.486;2023-07-20T09:00:54;6.75;;;1.45;;
13244;SDS011;6689;53.400;12.486;2023-07-20T09:03:24;2.60;;;0.90;;
13244;SDS011;6689;53.400;12.486;2023-07-20T09:05:51;2.33;;;1.27;;
13244;SDS011;6689;53.400;12.486;2023-07-20T09:08:20;1.60;;;0.60;;
13244;SDS011;6689;53.400;12.486;2023-07-20T09:10:47;1.45;;;0.98;;
13244;SDS011;6689;53.400;12.486;2023-07-20T09:13:15;1.63;;;0.73;;
13244;SDS011;6689;53.400;12.486;2023-07-20T09:15:45;2.20;;;1.15;;
13244;SDS011;6689;53.400;12.486;2023-07-20T09:18:24;2.42;;;0.90;;
13244;SDS011;6689;53.400;12.486;2023-07-20T09:20:57;1.42;;;0.90;;
13244;SDS011;6689;53.400;12.486;2023-07-20T09:23:30;2.78;;;0.90;;
13244;SDS011;6689;53.400;12.486;2023-07-20T09:25:58;2.78;;;0.88;;
13244;SDS011;6689;53.400;12.486;2023-07-20T09:28:26;1.48;;;1.00;;
13244;SDS011;6689;53.400;12.486;2023-07-20T09:30:54;0.98;;;0.80;;
13244;SDS011;6689;53.400;12.486;2023-07-20T09:33:25;2.50;;;1.05;;
13244;SDS011;6689;53.400;12.486;2023-07-20T09:35:52;1.77;;;1.00;;
13244;SDS011;6689;53.400;12.486;2023-07-20T09:38:20;1.52;;;1.20;;
13244;SDS011;6689;53.400;12.486;2023-07-20T09:40:47;2.67;;;0.80;;
13244;SDS011;6689;53.400;12.486;2023-07-20T09:43:15;1.70;;;0.90;;
13244;SDS011;6689;53.400;12.486;2023-07-20T09:45:43;3.63;;;1.30;;
13244;SDS011;6689;53.400;12.486;2023-07-20T09:48:10;1.15;;;0.90;;
13244;SDS011;6689;53.400;12.486;2023-07-20T09:50:43;1.52;;;1.20;;
13244;SDS011;6689;53.400;12.486;2023-07-20T09:53:16;2.65;;;1.30;;
13244;SDS011;6689;53.400;12.486;2023-07-20T09:55:45;2.30;;;0.82;;
13244;SDS011;6689;53.400;12.486;2023-07-20T09:58:13;2.95;;;0.90;;
13244;SDS011;6689;53.400;12.486;2023-07-20T10:00:41;2.42;;;0.80;;
13244;SDS011;6689;53.400;12.486;2023-07-20T10:03:13;1.17;;;0.80;;
13244;SDS011;6689;53.400;12.486;2023-07-20T10:05:47;2.60;;;1.20;;
13244;SDS011;6689;53.400;12.486;2023-07-20T10:08:18;5.70;;;1.50;;
13244;SDS011;6689;53.400;12.486;2023-07-20T10:10:47;3.50;;;0.95;;
13244;SDS011;6689;53.400;12.486;2023-07-20T10:13:17;2.95;;;1.00;;
13244;SDS011;6689;53.400;12.486;2023-07-20T10:15:46;1.42;;;0.80;;
13244;SDS011;6689;53.400;12.486;2023-07-20T10:18:17;3.25;;;0.90;;
13244;SDS011;6689;53.400;12.486;2023-07-20T10:20:52;3.50;;;0.80;;
13244;SDS011;6689;53.400;12.486;2023-07-20T10:23:21;2.08;;;1.10;;
13244;SDS011;6689;53.400;12.486;2023-07-20T10:25:49;1.30;;;0.65;;
13244;SDS011;6689;53.400;12.486;2023-07-20T10:28:17;2.65;;;0.80;;
13244;SDS011;6689;53.400;12.486;2023-07-20T10:30:46;1.88;;;0.93;;
13244;SDS011;6689;53.400;12.486;2023-07-20T10:33:14;1.10;;;0.63;;
13244;SDS011;6689;53.400;12.486;2023-07-20T10:35:54;2.20;;;0.90;;
13244;SDS011;6689;53.400;12.486;2023-07-20T10:41:15;1.48;;;1.05;;
13244;SDS011;6689;53.400;12.486;2023-07-20T10:43:44;2.35;;;1.23;;
13244;SDS011;6689;53.400;12.486;2023-07-20T10:46:13;1.10;;;0.82;;
13244;SDS011;6689;53.400;12.486;2023-07-20T10:48:59;1.02;;;0.80;;
13244;SDS011;6689;53.400;12.486;2023-07-20T10:51:29;2.20;;;0.80;;
13244;SDS011;6689;53.400;12.486;2023-07-20T10:54:07;0.88;;;0.80;;
13244;SDS011;6689;53.400;12.486;2023-07-20T10:56:35;1.98;;;1.02;;
13244;SDS011;6689;53.400;12.486;2023-07-20T10:59:02;2.42;;;1.08;;
13244;SDS011;6689;53.400;12.486;2023-07-20T11:01:46;2.20;;;1.15;;
13244;SDS011;6689;53.400;12.486;2023-07-20T11:04:15;2.05;;;1.17;;
13244;SDS011;6689;53.400;12.486;2023-07-20T11:06:45;1.80;;;1.25;;
13244;SDS011;6689;53.400;12.486;2023-07-20T11:09:13;2.97;;;1.60;;
13244;SDS011;6689;53.400;12.486;2023-07-20T11:11:41;1.92;;;1.17;;
13244;SDS011;6689;53.400;12.486;2023-07-20T11:14:10;1.38;;;1.20;;
13244;SDS011;6689;53.400;12.486;2023-07-20T11:16:46;3.70;;;1.15;;
13244;SDS011;6689;53.400;12.486;2023-07-20T11:19:16;3.53;;;1.42;;
13244;SDS011;6689;53.400;12.486;2023-07-20T11:21:46;3.80;;;1.50;;
13244;SDS011;6689;53.400;12.486;2023-07-20T11:24:16;1.98;;;1.30;;
13244;SDS011;6689;53.400;12.486;2023-07-20T11:26:44;3.65;;;2.05;;
13244;SDS011;6689;53.400;12.486;2023-07-20T11:29:13;4.40;;;1.60;;
13244;SDS011;6689;53.400;12.486;2023-07-20T11:31:42;2.92;;;1.50;;
13244;SDS011;6689;53.400;12.486;2023-07-20T11:34:11;1.85;;;1.60;;
13244;SDS011;6689;53.400;12.486;2023-07-20T11:36:39;2.55;;;1.40;;
13244;SDS011;6689;53.400;12.486;2023-07-20T11:39:11;3.15;;;1.70;;
13244;SDS011;6689;53.400;12.486;2023-07-20T11:41:43;3.20;;;1.10;;
13244;SDS011;6689;53.400;12.486;2023-07-20T11:44:13;6.50;;;2.05;;
13244;SDS011;6689;53.400;12.486;2023-07-20T11:46:41;3.67;;;1.95;;
13244;SDS011;6689;53.400;12.486;2023-07-20T11:49:12;2.88;;;1.73;;
13244;SDS011;6689;53.400;12.486;2023-07-20T11:51:40;2.22;;;1.70;;
13244;SDS011;6689;53.400;12.486;2023-07-20T11:54:08;2.85;;;1.80;;
13244;SDS011;6689;53.400;12.486;2023-07-20T11:56:41;4.15;;;1.50;;
13244;SDS011;6689;53.400;12.486;2023-07-20T11:59:09;2.08;;;1.45;;
13244;SDS011;6689;53.400;12.486;2023-07-20T12:01:36;3.13;;;1.58;;
13244;SDS011;6689;53.400;12.486;2023-07-20T12:04:04;3.45;;;1.60;;
13244;SDS011;6689;53.400;12.486;2023-07-20T12:06:32;3.20;;;1.73;;
13244;SDS011;6689;53.400;12.486;2023-07-20T12:08:59;2.38;;;1.30;;
13244;SDS011;6689;53.400;12.486;2023-07-20T12:11:31;1.70;;;1.27;;
13244;SDS011;6689;53.400;12.486;2023-07-20T12:14:02;2.13;;;1.40;;
13244;SDS011;6689;53.400;12.486;2023-07-20T12:16:30;2.22;;;1.20;;
13244;SDS011;6689;53.400;12.486;2023-07-20T12:19:01;3.55;;;1.50;;
13244;SDS011;6689;53.400;12.486;2023-07-20T12:21:29;5.95;;;1.25;;
13244;SDS011;6689;53.400;12.486;2023-07-20T12:23:58;5.57;;;1.45;;
13244;SDS011;6689;53.400;12.486;2023-07-20T12:26:25;1.98;;;1.00;;
13244;SDS011;6689;53.400;12.486;2023-07-20T12:28:56;1.83;;;1.13;;
13244;SDS011;6689;53.400;12.486;2023-07-20T12:31:25;1.60;;;1.23;;
13244;SDS011;6689;53.400;12.486;2023-07-20T12:33:55;2.45;;;1.50;;
13244;SDS011;6689;53.400;12.486;2023-07-20T12:36:24;3.25;;;1.52;;
13244;SDS011;6689;53.400;12.486;2023-07-20T12:38:52;1.83;;;1.00;;
13244;SDS011;6689;53.400;12.486;2023-07-20T12:41:20;3.05;;;1.30;;
13244;SDS011;6689;53.400;12.486;2023-07-20T12:43:47;2.13;;;1.40;;
13244;SDS011;6689;53.400;12.486;2023-07-20T12:46:16;3.67;;;1.30;;
13244;SDS011;6689;53.400;12.486;2023-07-20T12:48:43;3.20;;;1.10;;
13244;SDS011;6689;53.400;12.486;2023-07-20T12:51:11;2.53;;;1.30;;
13244;SDS011;6689;53.400;12.486;2023-07-20T12:53:39;2.50;;;1.70;;
13244;SDS011;6689;53.400;12.486;2023-07-20T12:56:09;2.85;;;1.10;;
13244;SDS011;6689;53.400;12.486;2023-07-20T12:58:36;2.25;;;1.15;;
13244;SDS011;6689;53.400;12.486;2023-07-20T13:01:04;3.53;;;1.02;;
13244;SDS011;6689;53.400;12.486;2023-07-20T13:03:32;3.42;;;1.65;;
13244;SDS011;6689;53.400;12.486;2023-07-20T13:06:00;2.20;;;1.13;;
13244;SDS011;6689;53.400;12.486;2023-07-20T13:08:27;4.50;;;1.40;;
13244;SDS011;6689;53.400;12.486;2023-07-20T13:10:54;9.27;;;1.40;;
13244;SDS011;6689;53.400;12.486;2023-07-20T13:13:22;4.82;;;1.65;;
13244;SDS011;6689;53.400;12.486;2023-07-20T13:15:49;5.85;;;1.42;;
13244;SDS011;6689;53.400;12.486;2023-07-20T13:18:17;2.00;;;1.35;;
13244;SDS011;6689;53.400;12.486;2023-07-20T13:20:46;3.08;;;1.08;;
13244;SDS011;6689;53.400;12.486;2023-07-20T13:23:13;6.53;;;1.60;;
13244;SDS011;6689;53.400;12.486;2023-07-20T13:25:40;3.75;;;1.33;;
13244;SDS011;6689;53.400;12.486;2023-07-20T13:28:08;2.35;;;1.42;;
13244;SDS011;6689;53.400;12.486;2023-07-20T13:30:38;2.38;;;1.33;;
13244;SDS011;6689;53.400;12.486;2023-07-20T13:33:05;3.95;;;1.00;;
13244;SDS011;6689;53.400;12.486;2023-07-20T13:35:32;3.17;;;1.48;;
13244;SDS011;6689;53.400;12.486;2023-07-20T13:38:01;1.88;;;0.90;;
13244;SDS011;6689;53.400;12.486;2023-07-20T13:40:28;5.03;;;1.00;;
13244;SDS011;6689;53.400;12.486;2023-07-20T13:42:56;2.30;;;1.13;;
13244;SDS011;6689;53.400;12.486;2023-07-20T13:45:23;3.80;;;1.30;;
13244;SDS011;6689;53.400;12.486;2023-07-20T13:47:51;1.55;;;0.95;;
13244;SDS011;6689;53.400;12.486;2023-07-20T13:50:18;3.65;;;1.08;;
13244;SDS011;6689;53.400;12.486;2023-07-20T13:52:46;1.23;;;1.00;;
13244;SDS011;6689;53.400;12.486;2023-07-20T13:55:15;2.72;;;0.82;;
13244;SDS011;6689;53.400;12.486;2023-07-20T13:57:43;5.00;;;0.90;;
13244;SDS011;6689;53.400;12.486;2023-07-20T14:00:11;0.60;;;0.60;;
13244;SDS011;6689;53.400;12.486;2023-07-20T14:02:39;2.83;;;0.88;;
13244;SDS011;6689;53.400;12.486;2023-07-20T14:05:08;3.13;;;0.90;;
13244;SDS011;6689;53.400;12.486;2023-07-20T14:07:36;6.78;;;0.70;;
13244;SDS011;6689;53.400;12.486;2023-07-20T14:10:03;1.23;;;0.68;;
13244;SDS011;6689;53.400;12.486;2023-07-20T14:12:32;0.80;;;0.60;;
13244;SDS011;6689;53.400;12.486;2023-07-20T14:15:00;0.80;;;0.35;;
13244;SDS011;6689;53.400;12.486;2023-07-20T14:17:29;0.43;;;0.30;;
13244;SDS011;6689;53.400;12.486;2023-07-20T14:19:57;1.75;;;0.45;;
13244;SDS011;6689;53.400;12.486;2023-07-20T14:22:24;0.43;;;0.32;;
13244;SDS011;6689;53.400;12.486;2023-07-20T14:24:51;4.95;;;0.40;;
13244;SDS011;6689;53.400;12.486;2023-07-20T14:27:18;2.00;;;0.30;;
13244;SDS011;6689;53.400;12.486;2023-07-20T14:29:47;3.15;;;0.70;;
13244;SDS011;6689;53.400;12.486;2023-07-20T14:32:15;1.45;;;0.40;;
13244;SDS011;6689;53.400;12.486;2023-07-20T14:34:42;1.02;;;0.40;;
13244;SDS011;6689;53.400;12.486;2023-07-20T14:37:09;1.38;;;0.55;;
13244;SDS011;6689;53.400;12.486;2023-07-20T14:39:37;0.95;;;0.47;;
13244;SDS011;6689;53.400;12.486;2023-07-20T14:42:05;1.88;;;0.57;;
13244;SDS011;6689;53.400;12.486;2023-07-20T14:44:35;0.65;;;0.50;;
13244;SDS011;6689;53.400;12.486;2023-07-20T14:47:04;0.82;;;0.50;;
13244;SDS011;6689;53.400;12.486;2023-07-20T14:49:32;1.52;;;0.50;;
13244;SDS011;6689;53.400;12.486;2023-07-20T14:51:59;0.95;;;0.60;;
13244;SDS011;6689;53.400;12.486;2023-07-20T14:54:27;0.40;;;0.40;;
13244;SDS011;6689;53.400;12.486;2023-07-20T14:56:54;2.65;;;0.50;;
13244;SDS011;6689;53.400;12.486;2023-07-20T14:59:22;1.15;;;0.63;;